sensor_id;sensor_type;location;lat;lon;timestamp;P1;durP1;ratioP1;P2;durP2;ratioP2
40162;SDS011;25881;47.462;19.304;2022-12-29T00:01:32;23.75;;;13.80;;
40162;SDS011;25881;47.462;19.304;2022-12-29T00:03:58;23.95;;;13.52;;
40162;SDS011;25881;47.462;19.304;2022-12-29T00:06:23;23.40;;;13.77;;
40162;SDS011;25881;47.462;19.304;2022-12-29T00:08:49;19.95;;;12.38;;
40162;SDS011;25881;47.462;19.304;2022-12-29T00:11:23;21.02;;;13.13;;
40162;SDS011;25881;47.462;19.304;2022-12-29T00:13:49;21.13;;;13.60;;
40162;SDS011;25881;47.462;19.304;2022-12-29T00:16:34;22.67;;;12.57;;
40162;SDS011;25881;47.462;19.304;2022-12-29T00:18:59;26.67;;;13.55;;
40162;SDS011;25881;47.462;19.304;2022-12-29T00:21:25;23.63;;;13.82;;
40162;SDS011;25881;47.462;19.304;2022-12-29T00:24:10;27.52;;;14.35;;
40162;SDS011;25881;47.462;19.304;2022-12-29T00:26:56;22.52;;;12.63;;
40162;SDS011;25881;47.462;19.304;2022-12-29T00:29:41;27.23;;;13.63;;
40162;SDS011;25881;47.462;19.304;2022-12-29T00:32:25;27.40;;;15.30;;
40162;SDS011;25881;47.462;19.304;2022-12-29T00:35:10;22.88;;;14.50;;
40162;SDS011;25881;47.462;19.304;2022-12-29T00:37:39;22.10;;;13.70;;
40162;SDS011;25881;47.462;19.304;2022-12-29T00:40:24;23.13;;;14.35;;
40162;SDS011;25881;47.462;19.304;2022-12-29T00:43:08;26.58;;;15.70;;
40162;SDS011;25881;47.462;19.304;2022-12-29T00:45:52;21.52;;;13.55;;
40162;SDS011;25881;47.462;19.304;2022-12-29T00:48:17;23.05;;;13.43;;
40162;SDS011;25881;47.462;19.304;2022-12-29T00:53:30;23.45;;;12.38;;
40162;SDS011;25881;47.462;19.304;2022-12-29T00:55:55;23.40;;;13.90;;
40162;SDS011;25881;47.462;19.304;2022-12-29T00:58:21;23.77;;;13.77;;
40162;SDS011;25881;47.462;19.304;2022-12-29T01:00:46;24.00;;;14.37;;
40162;SDS011;25881;47.462;19.304;2022-12-29T01:03:11;23.03;;;13.50;;
40162;SDS011;25881;47.462;19.304;2022-12-29T01:05:36;23.53;;;13.43;;
40162;SDS011;25881;47.462;19.304;2022-12-29T01:08:02;22.65;;;13.27;;
40162;SDS011;25881;47.462;19.304;2022-12-29T01:10:27;22.27;;;13.00;;
40162;SDS011;25881;47.462;19.304;2022-12-29T01:12:53;25.45;;;14.40;;
40162;SDS011;25881;47.462;19.304;2022-12-29T01:15:18;22.40;;;14.23;;
40162;SDS011;25881;47.462;19.304;2022-12-29T01:17:43;28.73;;;14.57;;
40162;SDS011;25881;47.462;19.304;2022-12-29T01:20:09;21.10;;;12.50;;
40162;SDS011;25881;47.462;19.304;2022-12-29T01:22:35;20.10;;;12.80;;
40162;SDS011;25881;47.462;19.304;2022-12-29T01:25:00;22.17;;;13.57;;
40162;SDS011;25881;47.462;19.304;2022-12-29T01:27:25;24.07;;;14.40;;
40162;SDS011;25881;47.462;19.304;2022-12-29T01:29:50;28.77;;;18.60;;
40162;SDS011;25881;47.462;19.304;2022-12-29T01:32:16;30.13;;;19.13;;
40162;SDS011;25881;47.462;19.304;2022-12-29T01:34:41;23.33;;;14.95;;
40162;SDS011;25881;47.462;19.304;2022-12-29T01:37:06;25.87;;;14.10;;
40162;SDS011;25881;47.462;19.304;2022-12-29T01:39:32;21.75;;;13.50;;
40162;SDS011;25881;47.462;19.304;2022-12-29T01:41:57;25.30;;;14.88;;
40162;SDS011;25881;47.462;19.304;2022-12-29T01:47:11;29.60;;;15.25;;
40162;SDS011;25881;47.462;19.304;2022-12-29T01:49:36;25.40;;;14.80;;
40162;SDS011;25881;47.462;19.304;2022-12-29T01:52:03;29.00;;;15.73;;
40162;SDS011;25881;47.462;19.304;2022-12-29T01:54:31;32.20;;;16.13;;
40162;SDS011;25881;47.462;19.304;2022-12-29T01:56:57;31.73;;;14.75;;
40162;SDS011;25881;47.462;19.304;2022-12-29T01:59:26;31.95;;;16.08;;
40162;SDS011;25881;47.462;19.304;2022-12-29T02:01:52;28.98;;;15.32;;
40162;SDS011;25881;47.462;19.304;2022-12-29T02:04:18;27.73;;;14.90;;
40162;SDS011;25881;47.462;19.304;2022-12-29T02:06:46;29.58;;;15.30;;
40162;SDS011;25881;47.462;19.304;2022-12-29T02:09:12;25.15;;;14.15;;
40162;SDS011;25881;47.462;19.304;2022-12-29T02:11:38;25.85;;;16.15;;
40162;SDS011;25881;47.462;19.304;2022-12-29T02:14:10;25.65;;;15.63;;
40162;SDS011;25881;47.462;19.304;2022-12-29T02:16:40;28.83;;;16.35;;
40162;SDS011;25881;47.462;19.304;2022-12-29T02:49:55;22.88;;;14.60;;
40162;SDS011;25881;47.462;19.304;2022-12-29T02:52:25;25.90;;;15.00;;
40162;SDS011;25881;47.462;19.304;2022-12-29T02:54:53;27.15;;;14.27;;
40162;SDS011;25881;47.462;19.304;2022-12-29T02:59:51;30.30;;;15.80;;
40162;SDS011;25881;47.462;19.304;2022-12-29T03:10:04;31.30;;;15.80;;
40162;SDS011;25881;47.462;19.304;2022-12-29T03:15:27;25.60;;;15.50;;
40162;SDS011;25881;47.462;19.304;2022-12-29T03:18:19;25.40;;;16.20;;
40162;SDS011;25881;47.462;19.304;2022-12-29T03:25:42;27.10;;;15.40;;
40162;SDS011;25881;47.462;19.304;2022-12-29T03:28:10;28.27;;;17.75;;
40162;SDS011;25881;47.462;19.304;2022-12-29T03:30:36;35.97;;;16.80;;
40162;SDS011;25881;47.462;19.304;2022-12-29T03:33:03;29.02;;;17.35;;
40162;SDS011;25881;47.462;19.304;2022-12-29T03:35:31;27.70;;;16.15;;
40162;SDS011;25881;47.462;19.304;2022-12-29T03:42:51;31.13;;;16.30;;
40162;SDS011;25881;47.462;19.304;2022-12-29T03:45:18;27.92;;;16.20;;
40162;SDS011;25881;47.462;19.304;2022-12-29T03:47:43;28.95;;;17.65;;
40162;SDS011;25881;47.462;19.304;2022-12-29T03:50:11;33.80;;;17.02;;
40162;SDS011;25881;47.462;19.304;2022-12-29T03:52:36;28.33;;;16.83;;
40162;SDS011;25881;47.462;19.304;2022-12-29T03:55:01;27.60;;;17.48;;
40162;SDS011;25881;47.462;19.304;2022-12-29T03:57:27;32.70;;;18.48;;
40162;SDS011;25881;47.462;19.304;2022-12-29T03:59:52;37.23;;;19.53;;
40162;SDS011;25881;47.462;19.304;2022-12-29T04:02:17;34.20;;;19.40;;
40162;SDS011;25881;47.462;19.304;2022-12-29T04:04:42;33.40;;;18.30;;
40162;SDS011;25881;47.462;19.304;2022-12-29T04:07:08;30.27;;;18.10;;
40162;SDS011;25881;47.462;19.304;2022-12-29T04:09:33;31.48;;;19.60;;
40162;SDS011;25881;47.462;19.304;2022-12-29T04:11:58;32.60;;;19.37;;
40162;SDS011;25881;47.462;19.304;2022-12-29T04:14:23;34.27;;;20.43;;
40162;SDS011;25881;47.462;19.304;2022-12-29T04:16:49;33.20;;;19.60;;
40162;SDS011;25881;47.462;19.304;2022-12-29T04:19:14;35.22;;;19.80;;
40162;SDS011;25881;47.462;19.304;2022-12-29T04:21:39;36.03;;;20.63;;
40162;SDS011;25881;47.462;19.304;2022-12-29T04:24:05;35.23;;;21.03;;
40162;SDS011;25881;47.462;19.304;2022-12-29T04:26:33;38.00;;;20.75;;
40162;SDS011;25881;47.462;19.304;2022-12-29T04:28:59;38.92;;;21.13;;
40162;SDS011;25881;47.462;19.304;2022-12-29T04:31:24;39.83;;;21.67;;
40162;SDS011;25881;47.462;19.304;2022-12-29T04:33:49;34.22;;;20.75;;
40162;SDS011;25881;47.462;19.304;2022-12-29T04:36:14;36.83;;;21.70;;
40162;SDS011;25881;47.462;19.304;2022-12-29T04:38:40;37.30;;;21.13;;
40162;SDS011;25881;47.462;19.304;2022-12-29T04:41:05;36.97;;;21.50;;
40162;SDS011;25881;47.462;19.304;2022-12-29T04:43:30;31.70;;;20.33;;
40162;SDS011;25881;47.462;19.304;2022-12-29T04:45:56;42.33;;;22.57;;
40162;SDS011;25881;47.462;19.304;2022-12-29T04:48:21;40.95;;;21.80;;
40162;SDS011;25881;47.462;19.304;2022-12-29T04:50:47;39.77;;;21.93;;
40162;SDS011;25881;47.462;19.304;2022-12-29T04:53:12;37.40;;;22.75;;
40162;SDS011;25881;47.462;19.304;2022-12-29T04:55:38;39.23;;;22.47;;
40162;SDS011;25881;47.462;19.304;2022-12-29T04:58:03;38.47;;;23.00;;
40162;SDS011;25881;47.462;19.304;2022-12-29T05:00:28;41.00;;;22.67;;
40162;SDS011;25881;47.462;19.304;2022-12-29T05:02:53;44.37;;;24.17;;
40162;SDS011;25881;47.462;19.304;2022-12-29T05:05:19;48.03;;;26.47;;
40162;SDS011;25881;47.462;19.304;2022-12-29T05:07:44;48.60;;;26.77;;
40162;SDS011;25881;47.462;19.304;2022-12-29T05:10:09;47.60;;;25.53;;
40162;SDS011;25881;47.462;19.304;2022-12-29T05:12:36;45.35;;;23.90;;
40162;SDS011;25881;47.462;19.304;2022-12-29T05:15:01;47.30;;;24.77;;
40162;SDS011;25881;47.462;19.304;2022-12-29T05:17:28;44.00;;;24.40;;
40162;SDS011;25881;47.462;19.304;2022-12-29T05:19:53;45.92;;;25.58;;
40162;SDS011;25881;47.462;19.304;2022-12-29T05:22:18;42.40;;;24.57;;
40162;SDS011;25881;47.462;19.304;2022-12-29T05:24:44;47.55;;;25.80;;
40162;SDS011;25881;47.462;19.304;2022-12-29T05:27:09;44.58;;;24.27;;
40162;SDS011;25881;47.462;19.304;2022-12-29T05:29:34;47.93;;;25.70;;
40162;SDS011;25881;47.462;19.304;2022-12-29T05:32:00;44.93;;;24.97;;
40162;SDS011;25881;47.462;19.304;2022-12-29T05:34:25;43.23;;;24.73;;
40162;SDS011;25881;47.462;19.304;2022-12-29T05:36:50;49.57;;;26.67;;
40162;SDS011;25881;47.462;19.304;2022-12-29T05:39:16;47.97;;;26.63;;
40162;SDS011;25881;47.462;19.304;2022-12-29T05:41:41;44.45;;;25.20;;
40162;SDS011;25881;47.462;19.304;2022-12-29T05:44:06;48.40;;;25.10;;
40162;SDS011;25881;47.462;19.304;2022-12-29T05:46:31;45.40;;;26.77;;
40162;SDS011;25881;47.462;19.304;2022-12-29T05:48:57;46.42;;;25.70;;
40162;SDS011;25881;47.462;19.304;2022-12-29T05:51:22;49.05;;;26.67;;
40162;SDS011;25881;47.462;19.304;2022-12-29T05:53:47;42.03;;;25.42;;
40162;SDS011;25881;47.462;19.304;2022-12-29T05:56:12;40.13;;;23.80;;
40162;SDS011;25881;47.462;19.304;2022-12-29T05:58:39;43.63;;;24.08;;
40162;SDS011;25881;47.462;19.304;2022-12-29T06:01:04;42.77;;;25.57;;
40162;SDS011;25881;47.462;19.304;2022-12-29T06:03:30;46.15;;;24.20;;
40162;SDS011;25881;47.462;19.304;2022-12-29T06:05:55;46.73;;;24.37;;
40162;SDS011;25881;47.462;19.304;2022-12-29T06:08:20;46.60;;;24.88;;
40162;SDS011;25881;47.462;19.304;2022-12-29T06:10:45;45.95;;;24.58;;
40162;SDS011;25881;47.462;19.304;2022-12-29T06:13:11;43.93;;;25.50;;
40162;SDS011;25881;47.462;19.304;2022-12-29T06:15:36;43.92;;;24.45;;
40162;SDS011;25881;47.462;19.304;2022-12-29T06:18:01;44.85;;;25.58;;
40162;SDS011;25881;47.462;19.304;2022-12-29T06:20:27;45.28;;;23.73;;
40162;SDS011;25881;47.462;19.304;2022-12-29T06:22:52;40.05;;;21.95;;
40162;SDS011;25881;47.462;19.304;2022-12-29T06:25:17;42.07;;;24.07;;
40162;SDS011;25881;47.462;19.304;2022-12-29T06:27:43;40.60;;;23.73;;
40162;SDS011;25881;47.462;19.304;2022-12-29T06:30:08;36.67;;;21.25;;
40162;SDS011;25881;47.462;19.304;2022-12-29T06:32:34;40.83;;;23.00;;
40162;SDS011;25881;47.462;19.304;2022-12-29T06:34:59;41.63;;;24.83;;
40162;SDS011;25881;47.462;19.304;2022-12-29T06:37:25;41.45;;;23.23;;
40162;SDS011;25881;47.462;19.304;2022-12-29T06:39:50;41.83;;;23.83;;
40162;SDS011;25881;47.462;19.304;2022-12-29T06:42:15;45.55;;;24.50;;
40162;SDS011;25881;47.462;19.304;2022-12-29T06:44:41;40.53;;;23.55;;
40162;SDS011;25881;47.462;19.304;2022-12-29T06:47:06;39.72;;;23.98;;
40162;SDS011;25881;47.462;19.304;2022-12-29T06:49:31;48.67;;;25.13;;
40162;SDS011;25881;47.462;19.304;2022-12-29T06:51:56;42.87;;;24.60;;
40162;SDS011;25881;47.462;19.304;2022-12-29T06:54:23;44.78;;;24.75;;
40162;SDS011;25881;47.462;19.304;2022-12-29T06:56:48;42.22;;;24.35;;
40162;SDS011;25881;47.462;19.304;2022-12-29T06:59:13;41.83;;;24.40;;
40162;SDS011;25881;47.462;19.304;2022-12-29T07:01:39;40.35;;;22.77;;
40162;SDS011;25881;47.462;19.304;2022-12-29T07:04:04;44.77;;;24.50;;
40162;SDS011;25881;47.462;19.304;2022-12-29T07:06:29;43.50;;;22.58;;
40162;SDS011;25881;47.462;19.304;2022-12-29T07:08:54;43.55;;;22.77;;
40162;SDS011;25881;47.462;19.304;2022-12-29T07:11:22;43.55;;;25.10;;
40162;SDS011;25881;47.462;19.304;2022-12-29T07:13:47;39.85;;;23.40;;
40162;SDS011;25881;47.462;19.304;2022-12-29T07:16:13;38.17;;;22.07;;
40162;SDS011;25881;47.462;19.304;2022-12-29T07:18:38;46.43;;;22.23;;
40162;SDS011;25881;47.462;19.304;2022-12-29T07:21:03;41.00;;;22.92;;
40162;SDS011;25881;47.462;19.304;2022-12-29T07:23:29;42.67;;;24.67;;
40162;SDS011;25881;47.462;19.304;2022-12-29T07:26:04;38.70;;;22.03;;
40162;SDS011;25881;47.462;19.304;2022-12-29T07:28:29;39.30;;;22.38;;
40162;SDS011;25881;47.462;19.304;2022-12-29T07:30:55;38.55;;;21.77;;
40162;SDS011;25881;47.462;19.304;2022-12-29T07:33:20;38.90;;;22.25;;
40162;SDS011;25881;47.462;19.304;2022-12-29T07:35:46;36.13;;;21.77;;
40162;SDS011;25881;47.462;19.304;2022-12-29T07:38:11;39.60;;;23.20;;
40162;SDS011;25881;47.462;19.304;2022-12-29T07:40:37;36.33;;;21.75;;
40162;SDS011;25881;47.462;19.304;2022-12-29T07:43:02;43.87;;;22.80;;
40162;SDS011;25881;47.462;19.304;2022-12-29T07:45:29;41.40;;;22.98;;
40162;SDS011;25881;47.462;19.304;2022-12-29T07:47:54;41.83;;;23.27;;
40162;SDS011;25881;47.462;19.304;2022-12-29T07:50:19;34.10;;;20.77;;
40162;SDS011;25881;47.462;19.304;2022-12-29T07:52:44;40.20;;;22.27;;
40162;SDS011;25881;47.462;19.304;2022-12-29T07:55:11;45.60;;;24.25;;
40162;SDS011;25881;47.462;19.304;2022-12-29T07:57:37;43.25;;;25.77;;
40162;SDS011;25881;47.462;19.304;2022-12-29T08:00:02;49.07;;;29.57;;
40162;SDS011;25881;47.462;19.304;2022-12-29T08:02:28;47.60;;;26.13;;
40162;SDS011;25881;47.462;19.304;2022-12-29T08:04:54;41.65;;;23.35;;
40162;SDS011;25881;47.462;19.304;2022-12-29T08:07:20;43.38;;;24.55;;
40162;SDS011;25881;47.462;19.304;2022-12-29T08:09:45;43.67;;;25.02;;
40162;SDS011;25881;47.462;19.304;2022-12-29T08:12:10;37.40;;;23.40;;
40162;SDS011;25881;47.462;19.304;2022-12-29T08:14:36;50.45;;;26.73;;
40162;SDS011;25881;47.462;19.304;2022-12-29T08:17:01;61.65;;;32.20;;
40162;SDS011;25881;47.462;19.304;2022-12-29T08:19:26;57.72;;;29.48;;
40162;SDS011;25881;47.462;19.304;2022-12-29T08:21:52;46.92;;;26.73;;
40162;SDS011;25881;47.462;19.304;2022-12-29T08:24:18;52.60;;;27.27;;
40162;SDS011;25881;47.462;19.304;2022-12-29T08:26:43;76.17;;;36.60;;
40162;SDS011;25881;47.462;19.304;2022-12-29T08:29:08;85.33;;;39.40;;
40162;SDS011;25881;47.462;19.304;2022-12-29T08:31:33;82.07;;;40.27;;
40162;SDS011;25881;47.462;19.304;2022-12-29T08:33:59;70.97;;;34.93;;
40162;SDS011;25881;47.462;19.304;2022-12-29T08:36:24;63.10;;;33.38;;
40162;SDS011;25881;47.462;19.304;2022-12-29T08:38:50;56.42;;;30.30;;
40162;SDS011;25881;47.462;19.304;2022-12-29T08:41:15;40.58;;;25.38;;
40162;SDS011;25881;47.462;19.304;2022-12-29T08:43:40;47.80;;;25.43;;
40162;SDS011;25881;47.462;19.304;2022-12-29T08:46:06;37.15;;;23.88;;
40162;SDS011;25881;47.462;19.304;2022-12-29T08:48:31;43.05;;;26.70;;
40162;SDS011;25881;47.462;19.304;2022-12-29T08:50:56;48.35;;;26.17;;
40162;SDS011;25881;47.462;19.304;2022-12-29T08:53:21;43.90;;;25.63;;
40162;SDS011;25881;47.462;19.304;2022-12-29T08:55:47;43.50;;;24.87;;
40162;SDS011;25881;47.462;19.304;2022-12-29T08:58:12;43.65;;;25.92;;
40162;SDS011;25881;47.462;19.304;2022-12-29T09:00:40;42.85;;;26.15;;
40162;SDS011;25881;47.462;19.304;2022-12-29T09:03:05;39.75;;;24.05;;
40162;SDS011;25881;47.462;19.304;2022-12-29T09:05:30;43.53;;;24.93;;
40162;SDS011;25881;47.462;19.304;2022-12-29T09:07:55;42.27;;;24.83;;
40162;SDS011;25881;47.462;19.304;2022-12-29T09:10:21;45.42;;;25.95;;
40162;SDS011;25881;47.462;19.304;2022-12-29T09:12:46;42.55;;;25.15;;
40162;SDS011;25881;47.462;19.304;2022-12-29T09:15:11;41.70;;;26.20;;
40162;SDS011;25881;47.462;19.304;2022-12-29T09:17:37;40.50;;;25.80;;
40162;SDS011;25881;47.462;19.304;2022-12-29T09:22:31;42.17;;;25.17;;
40162;SDS011;25881;47.462;19.304;2022-12-29T09:24:56;42.10;;;26.33;;
40162;SDS011;25881;47.462;19.304;2022-12-29T09:27:21;48.53;;;27.03;;
40162;SDS011;25881;47.462;19.304;2022-12-29T09:29:46;47.33;;;27.98;;
40162;SDS011;25881;47.462;19.304;2022-12-29T09:32:12;52.05;;;28.77;;
40162;SDS011;25881;47.462;19.304;2022-12-29T09:34:40;55.05;;;29.35;;
40162;SDS011;25881;47.462;19.304;2022-12-29T09:37:06;53.33;;;31.33;;
40162;SDS011;25881;47.462;19.304;2022-12-29T09:39:31;49.03;;;28.70;;
40162;SDS011;25881;47.462;19.304;2022-12-29T09:46:50;47.63;;;27.27;;
40162;SDS011;25881;47.462;19.304;2022-12-29T09:52:03;47.95;;;26.15;;
40162;SDS011;25881;47.462;19.304;2022-12-29T09:56:55;40.77;;;25.77;;
40162;SDS011;25881;47.462;19.304;2022-12-29T09:59:21;42.17;;;26.63;;
40162;SDS011;25881;47.462;19.304;2022-12-29T10:04:14;44.75;;;27.65;;
40162;SDS011;25881;47.462;19.304;2022-12-29T10:06:54;44.38;;;27.38;;
40162;SDS011;25881;47.462;19.304;2022-12-29T10:25:04;45.63;;;28.08;;
40162;SDS011;25881;47.462;19.304;2022-12-29T10:27:34;45.72;;;27.40;;
40162;SDS011;25881;47.462;19.304;2022-12-29T10:30:00;51.83;;;29.13;;
40162;SDS011;25881;47.462;19.304;2022-12-29T10:32:30;55.25;;;29.92;;
40162;SDS011;25881;47.462;19.304;2022-12-29T10:35:03;45.45;;;29.05;;
40162;SDS011;25881;47.462;19.304;2022-12-29T10:37:34;50.05;;;29.95;;
40162;SDS011;25881;47.462;19.304;2022-12-29T10:40:02;52.85;;;31.17;;
40162;SDS011;25881;47.462;19.304;2022-12-29T10:42:37;46.90;;;28.77;;
40162;SDS011;25881;47.462;19.304;2022-12-29T10:45:04;51.13;;;30.33;;
40162;SDS011;25881;47.462;19.304;2022-12-29T10:47:32;48.80;;;29.13;;
40162;SDS011;25881;47.462;19.304;2022-12-29T10:49:59;44.55;;;27.35;;
40162;SDS011;25881;47.462;19.304;2022-12-29T10:52:25;51.22;;;29.83;;
40162;SDS011;25881;47.462;19.304;2022-12-29T10:55:02;49.75;;;29.40;;
40162;SDS011;25881;47.462;19.304;2022-12-29T10:57:30;52.28;;;29.17;;
40162;SDS011;25881;47.462;19.304;2022-12-29T10:59:56;49.33;;;27.95;;
40162;SDS011;25881;47.462;19.304;2022-12-29T11:05:10;45.58;;;26.45;;
40162;SDS011;25881;47.462;19.304;2022-12-29T11:07:42;41.17;;;26.30;;
40162;SDS011;25881;47.462;19.304;2022-12-29T11:12:56;54.55;;;29.75;;
40162;SDS011;25881;47.462;19.304;2022-12-29T11:15:22;48.22;;;27.65;;
40162;SDS011;25881;47.462;19.304;2022-12-29T11:17:48;54.95;;;30.38;;
40162;SDS011;25881;47.462;19.304;2022-12-29T11:22:58;49.10;;;30.60;;
40162;SDS011;25881;47.462;19.304;2022-12-29T11:25:23;48.58;;;28.73;;
40162;SDS011;25881;47.462;19.304;2022-12-29T11:28:00;53.25;;;29.13;;
40162;SDS011;25881;47.462;19.304;2022-12-29T11:30:29;48.60;;;30.17;;
40162;SDS011;25881;47.462;19.304;2022-12-29T11:32:55;46.53;;;30.05;;
40162;SDS011;25881;47.462;19.304;2022-12-29T11:37:56;50.28;;;27.42;;
40162;SDS011;25881;47.462;19.304;2022-12-29T11:40:22;48.92;;;31.88;;
40162;SDS011;25881;47.462;19.304;2022-12-29T11:42:48;49.55;;;31.00;;
40162;SDS011;25881;47.462;19.304;2022-12-29T11:45:16;49.05;;;30.42;;
40162;SDS011;25881;47.462;19.304;2022-12-29T11:47:43;51.90;;;30.90;;
40162;SDS011;25881;47.462;19.304;2022-12-29T11:50:16;54.35;;;31.48;;
40162;SDS011;25881;47.462;19.304;2022-12-29T11:52:42;54.45;;;32.22;;
40162;SDS011;25881;47.462;19.304;2022-12-29T11:55:16;56.47;;;33.38;;
40162;SDS011;25881;47.462;19.304;2022-12-29T11:57:42;62.33;;;33.88;;
40162;SDS011;25881;47.462;19.304;2022-12-29T12:00:31;50.47;;;32.67;;
40162;SDS011;25881;47.462;19.304;2022-12-29T12:02:58;61.63;;;34.15;;
40162;SDS011;25881;47.462;19.304;2022-12-29T12:05:33;56.00;;;32.97;;
40162;SDS011;25881;47.462;19.304;2022-12-29T12:08:12;54.63;;;32.33;;
40162;SDS011;25881;47.462;19.304;2022-12-29T12:10:42;62.60;;;35.83;;
40162;SDS011;25881;47.462;19.304;2022-12-29T12:13:29;54.13;;;32.92;;
40162;SDS011;25881;47.462;19.304;2022-12-29T12:15:58;53.40;;;31.73;;
40162;SDS011;25881;47.462;19.304;2022-12-29T12:18:32;54.47;;;31.73;;
40162;SDS011;25881;47.462;19.304;2022-12-29T12:21:45;50.63;;;30.77;;
40162;SDS011;25881;47.462;19.304;2022-12-29T12:26:17;63.72;;;36.17;;
40162;SDS011;25881;47.462;19.304;2022-12-29T12:31:15;51.23;;;33.00;;
40162;SDS011;25881;47.462;19.304;2022-12-29T12:33:42;56.70;;;33.08;;
40162;SDS011;25881;47.462;19.304;2022-12-29T12:57:08;46.70;;;29.65;;
40162;SDS011;25881;47.462;19.304;2022-12-29T13:04:46;52.80;;;30.55;;
40162;SDS011;25881;47.462;19.304;2022-12-29T13:15:04;89.70;;;43.72;;
40162;SDS011;25881;47.462;19.304;2022-12-29T13:17:40;66.28;;;35.38;;
40162;SDS011;25881;47.462;19.304;2022-12-29T13:22:38;58.25;;;34.30;;
40162;SDS011;25881;47.462;19.304;2022-12-29T13:28:11;50.50;;;31.17;;
40162;SDS011;25881;47.462;19.304;2022-12-29T13:30:42;55.40;;;31.30;;
40162;SDS011;25881;47.462;19.304;2022-12-29T13:38:17;51.45;;;32.40;;
40162;SDS011;25881;47.462;19.304;2022-12-29T13:40:45;50.83;;;32.45;;
40162;SDS011;25881;47.462;19.304;2022-12-29T13:43:11;56.03;;;32.35;;
40162;SDS011;25881;47.462;19.304;2022-12-29T13:45:37;48.22;;;30.27;;
40162;SDS011;25881;47.462;19.304;2022-12-29T13:50:35;49.70;;;31.27;;
40162;SDS011;25881;47.462;19.304;2022-12-29T13:53:04;50.53;;;31.67;;
40162;SDS011;25881;47.462;19.304;2022-12-29T14:00:49;54.83;;;32.80;;
40162;SDS011;25881;47.462;19.304;2022-12-29T14:03:19;51.63;;;31.38;;
40162;SDS011;25881;47.462;19.304;2022-12-29T14:06:02;51.33;;;30.48;;
40162;SDS011;25881;47.462;19.304;2022-12-29T14:08:29;47.25;;;29.67;;
40162;SDS011;25881;47.462;19.304;2022-12-29T14:10:58;49.75;;;30.08;;
40162;SDS011;25881;47.462;19.304;2022-12-29T14:13:30;47.72;;;29.35;;
40162;SDS011;25881;47.462;19.304;2022-12-29T14:15:56;52.77;;;32.13;;
40162;SDS011;25881;47.462;19.304;2022-12-29T14:18:31;56.83;;;33.97;;
40162;SDS011;25881;47.462;19.304;2022-12-29T14:21:03;60.15;;;35.28;;
40162;SDS011;25881;47.462;19.304;2022-12-29T14:23:37;62.85;;;36.35;;
40162;SDS011;25881;47.462;19.304;2022-12-29T14:31:02;65.47;;;37.28;;
40162;SDS011;25881;47.462;19.304;2022-12-29T14:33:29;64.40;;;39.00;;
40162;SDS011;25881;47.462;19.304;2022-12-29T14:35:55;60.45;;;37.10;;
40162;SDS011;25881;47.462;19.304;2022-12-29T14:40:46;57.27;;;33.07;;
40162;SDS011;25881;47.462;19.304;2022-12-29T14:43:13;58.47;;;36.10;;
40162;SDS011;25881;47.462;19.304;2022-12-29T14:45:42;60.78;;;37.67;;
40162;SDS011;25881;47.462;19.304;2022-12-29T14:50:51;49.45;;;30.23;;
40162;SDS011;25881;47.462;19.304;2022-12-29T14:56:00;56.50;;;31.95;;
40162;SDS011;25881;47.462;19.304;2022-12-29T14:58:43;47.95;;;29.88;;
40162;SDS011;25881;47.462;19.304;2022-12-29T15:01:15;54.47;;;31.52;;
40162;SDS011;25881;47.462;19.304;2022-12-29T15:03:45;49.97;;;30.95;;
40162;SDS011;25881;47.462;19.304;2022-12-29T15:06:11;54.83;;;31.90;;
40162;SDS011;25881;47.462;19.304;2022-12-29T15:08:39;54.13;;;32.95;;
40162;SDS011;25881;47.462;19.304;2022-12-29T15:11:24;52.35;;;31.30;;
40162;SDS011;25881;47.462;19.304;2022-12-29T15:13:53;55.72;;;32.90;;
40162;SDS011;25881;47.462;19.304;2022-12-29T15:21:13;61.22;;;34.90;;
40162;SDS011;25881;47.462;19.304;2022-12-29T15:23:39;62.10;;;35.28;;
40162;SDS011;25881;47.462;19.304;2022-12-29T15:26:07;59.88;;;35.72;;
40162;SDS011;25881;47.462;19.304;2022-12-29T15:28:43;63.33;;;36.63;;
40162;SDS011;25881;47.462;19.304;2022-12-29T15:31:16;62.78;;;35.58;;
40162;SDS011;25881;47.462;19.304;2022-12-29T15:33:43;57.40;;;33.08;;
40162;SDS011;25881;47.462;19.304;2022-12-29T15:36:10;60.72;;;34.63;;
40162;SDS011;25881;47.462;19.304;2022-12-29T15:38:36;63.05;;;34.30;;
40162;SDS011;25881;47.462;19.304;2022-12-29T15:46:07;59.13;;;36.40;;
40162;SDS011;25881;47.462;19.304;2022-12-29T15:48:32;66.47;;;38.00;;
40162;SDS011;25881;47.462;19.304;2022-12-29T15:50:57;69.50;;;38.75;;
40162;SDS011;25881;47.462;19.304;2022-12-29T15:53:25;64.03;;;37.85;;
40162;SDS011;25881;47.462;19.304;2022-12-29T15:55:53;62.40;;;35.20;;
40162;SDS011;25881;47.462;19.304;2022-12-29T15:58:22;59.10;;;35.78;;
40162;SDS011;25881;47.462;19.304;2022-12-29T16:00:50;64.93;;;38.38;;
40162;SDS011;25881;47.462;19.304;2022-12-29T16:03:15;66.50;;;39.92;;
40162;SDS011;25881;47.462;19.304;2022-12-29T16:05:41;60.67;;;37.15;;
40162;SDS011;25881;47.462;19.304;2022-12-29T16:08:33;66.97;;;39.78;;
40162;SDS011;25881;47.462;19.304;2022-12-29T16:11:03;81.43;;;48.10;;
40162;SDS011;25881;47.462;19.304;2022-12-29T16:13:32;66.72;;;38.80;;
40162;SDS011;25881;47.462;19.304;2022-12-29T16:16:00;69.03;;;38.08;;
40162;SDS011;25881;47.462;19.304;2022-12-29T16:18:27;61.83;;;36.75;;
40162;SDS011;25881;47.462;19.304;2022-12-29T16:20:53;61.95;;;36.30;;
40162;SDS011;25881;47.462;19.304;2022-12-29T16:23:20;61.38;;;35.42;;
40162;SDS011;25881;47.462;19.304;2022-12-29T16:25:47;67.20;;;38.50;;
40162;SDS011;25881;47.462;19.304;2022-12-29T16:28:17;77.65;;;39.45;;
40162;SDS011;25881;47.462;19.304;2022-12-29T16:30:43;63.38;;;38.45;;
40162;SDS011;25881;47.462;19.304;2022-12-29T16:35:52;66.13;;;39.85;;
40162;SDS011;25881;47.462;19.304;2022-12-29T16:40:52;71.97;;;41.10;;
40162;SDS011;25881;47.462;19.304;2022-12-29T16:53:50;46.75;;;27.98;;
40162;SDS011;25881;47.462;19.304;2022-12-29T16:56:17;54.20;;;31.25;;
40162;SDS011;25881;47.462;19.304;2022-12-29T16:58:48;48.55;;;28.83;;
40162;SDS011;25881;47.462;19.304;2022-12-29T17:01:13;51.33;;;30.15;;
40162;SDS011;25881;47.462;19.304;2022-12-29T17:03:48;53.92;;;31.30;;
40162;SDS011;25881;47.462;19.304;2022-12-29T17:06:15;47.95;;;28.77;;
40162;SDS011;25881;47.462;19.304;2022-12-29T17:08:41;59.42;;;31.42;;
40162;SDS011;25881;47.462;19.304;2022-12-29T17:11:08;51.00;;;30.70;;
40162;SDS011;25881;47.462;19.304;2022-12-29T17:13:59;45.63;;;28.58;;
40162;SDS011;25881;47.462;19.304;2022-12-29T17:16:25;62.03;;;34.43;;
40162;SDS011;25881;47.462;19.304;2022-12-29T17:18:50;71.22;;;39.40;;
40162;SDS011;25881;47.462;19.304;2022-12-29T17:21:15;62.10;;;34.07;;
40162;SDS011;25881;47.462;19.304;2022-12-29T17:23:40;57.03;;;32.77;;
40162;SDS011;25881;47.462;19.304;2022-12-29T17:26:06;55.90;;;32.05;;
40162;SDS011;25881;47.462;19.304;2022-12-29T17:28:33;57.42;;;31.45;;